Terminal Aerodrome Forecast
Issued by NWS Louisville, KY

Home | Current Version | Previous Version | Text Only | Print | Product List | Glossary On
Versions: 1 2 3 4 5 6 7 8 9 10 11 12 13 14 15 16 17 18 19 20 21
000
FTUS43 KLMK 220853 AAA
TAFLEX
TAF AMD
KLEX 220853Z 2209/2306 04012KT P6SM VCSH OVC014
      TEMPO 2209/2213 BKN008
     FM221300 05013KT 6SM -SHRA BR OVC014
     FM221600 05013G21KT P6SM OVC021
     FM221800 05013G21KT 6SM -SHRA BR OVC012
     FM222100 05012G20KT P6SM OVC015
     FM230100 05012KT P6SM OVC024=

USA.gov is the U.S. government's official web portal to all federal, state and local government web resources and services.